Nearby METAR Reports

 

KIAG - Niagara Falls, New York, USA
Distance from station: W 12mi, 20km
Updated: 06/22/2018 12:53am
Clear
Clear
 Wind from E
Wind: E 3 mph , 6 km/h
Temperature: 57°F , 14°C
Dew Point: 43°F , 6°C
Humidity: 59%
Barometer: 1014.2 hPa
Clouds: Clear
Visibility: 10 miles , 16 km
2018/06/22 04:53 KIAG 220453Z AUTO 09003KT 10SM CLR 14/06 A2995 RMK AO2 SLP140 T01440061 402440144
KBUF - Buffalo/Cheektow, New York, USA
Distance from station: S 13mi, 21km
Updated: 06/22/2018 12:54am
Partly cloudy
Partly cloudy
 Wind from ENE
Wind: ENE 7 mph , 11 km/h
Temperature: 55°F , 13°C
Dew Point: 45°F , 7°C
Humidity: 67%
Barometer: 1014.2 hPa
Clouds: Partly cloudy
Visibility: 10 miles , 16 km
Cloud details: Partly cloudy 25000 ft
2018/06/22 04:54 KBUF 220454Z 07006KT 10SM SCT250 13/07 A2995 RMK AO2 SLP139 T01330067 402330133
 
KROC - Rochester, New York, USA
Distance from station: E 51mi, 82km
Updated: 06/22/2018 12:54am
Partly cloudy
Partly cloudy
 Wind from E
Wind: E 7 mph , 11 km/h
Temperature: 57°F , 14°C
Dew Point: 45°F , 7°C
Humidity: 63%
Barometer: 1014.9 hPa
Clouds: Partly cloudy
Visibility: 10 miles , 16 km
Cloud details: Partly cloudy 25000 ft
2018/06/22 04:54 KROC 220454Z 09006KT 10SM SCT250 14/07 A2997 RMK AO2 SLP150 T01390072 402170117
CYSN - St. Catharines A, Ontario, Canada
Distance from station: WNW 25mi, 40km
Updated: 06/21/2018 9:00pm
NOT Current
Mostly cloudy
Mostly cloudy
 Wind from ENE
Wind: ENE 8 mph , 13 km/h
Temperature: 63°F , 17°C
Dew Point: 43°F , 6°C
Humidity: 49%
Barometer: 1012.5 hPa
Clouds: Mostly cloudy
Visibility: 15 miles , 24 km
Cloud details: Few Clouds 12000 ft
Mostly cloudy 27000 ft
2018/06/22 01:00 CYSN 220100Z 07007KT 15SM FEW120 BKN270 17/06 A2990 RMK AC1CI4 LAST STFD OBS/NEXT 221100 UTC SLP126 DENSITY ALT 700FT
 
KOLE - Olean, New York, USA
Distance from station: SSE 63mi, 102km
Updated: 06/22/2018 1:35am
Clear
Clear
 Wind from E
Wind: E 8 mph , 13 km/h
Temperature: 48°F , 9°C
Wind Chill: 44°F , 7°C
Dew Point: 39°F , 4°C
Humidity: 71%
Barometer: 1014.9 hPa
Clouds: Clear
Visibility: 10 miles , 16 km
2018/06/22 05:35 KOLE 220535Z AUTO 09007KT 10SM CLR 09/04 A2997 RMK AO2
KJHW - Jamestown, New York, USA
Distance from station: SSW 74mi, 119km
Updated: 06/22/2018 12:56am
Clear
Clear
 Wind from E
Wind: E 10 mph , 17 km/h
Temperature: 59°F , 15°C
Dew Point: 52°F , 11°C
Humidity: 77%
Barometer: 1013.9 hPa
Clouds: Clear
Visibility: 10 miles , 16 km
2018/06/22 04:56 KJHW 220456Z AUTO 08009KT 10SM CLR 15/11 A2994 RMK AO2 SLP134 T01500106 402440128
 
CWWZ - Port Weller (mar, Ontario, Canada
Distance from station: WNW 28mi, 45km
Updated: 06/22/2018 1:00am

 Wind from SE
Wind: SE 5 mph , 7 km/h
Temperature: 61°F , 16°C
Dew Point: 48°F , 9°C
Humidity: 63%
2018/06/22 05:00 CWWZ 220500Z AUTO 13004KT 16/09 RMK AO1 SLP141 T01590087 51008
CWPC - Port Colborne(Au, Ontario, Canada
Distance from station: WSW 33mi, 53km
Updated: 06/22/2018 1:00am

 Wind from E
Wind: E 9 mph , 15 km/h
Temperature: 61°F , 16°C
Dew Point: 43°F , 6°C
Humidity: 52%
2018/06/22 05:00 CWPC 220500Z AUTO 09008KT 16/06 RMK AO1 SLP139 T01610058 51006
 
CXVN - Vineland (au8), Ontario, Canada
Distance from station: W 36mi, 58km
Updated: 06/22/2018 1:00am

 Wind from E
Wind: E 3 mph , 6 km/h
Temperature: 59°F , 15°C
Dew Point: 48°F , 9°C
Humidity: 68%
2018/06/22 05:00 CXVN 220500Z AUTO 08003KT 15/09 RMK AO1 SLP131 T01540091 50005
CYTZ - Toronto Il Vor, Ontario, Canada
Distance from station: NW 50mi, 81km
Updated: 06/22/2018 1:00am
Clear
Clear
 Wind from NE
Wind: NE 12 mph , 19 km/h
Temperature: 61°F , 16°C
Dew Point: 46°F , 8°C
Humidity: 59%
Barometer: 1014.2 hPa
Clouds: Clear
Visibility: 9 miles , 14 km
2018/06/22 05:00 CYTZ 220500Z AUTO 05010KT 9SM CLR 16/08 A2995 RMK SLP145 DENSITY ALT 300FT
 
CXTO - Toronto City, Ontario, Canada
Distance from station: NW 52mi, 84km
Updated: 06/22/2018 1:00am

 
Temperature: 61°F , 16°C
Dew Point: 41°F , 5°C
Humidity: 48%
2018/06/22 05:00 CXTO 220500Z AUTO 16/05 RMK AO1 SLP145 T01630051 51007
KDKK - Dunkirk, New York, USA
Distance from station: SW 52mi, 84km
Updated: 06/22/2018 12:53am
Clear
Clear
 Wind from NE
Wind: NE 8 mph , 13 km/h
Temperature: 55°F , 13°C
Dew Point: 46°F , 8°C
Humidity: 72%
Barometer: 1013.2 hPa
Clouds: Clear
Visibility: 10 miles , 16 km
2018/06/22 04:53 KDKK 220453Z AUTO 04007KT 10SM CLR 13/08 A2992 RMK AO2 SLP130 T01280078 402330111 $
 
CYOO - Oshawa, Ontario, Canada
Distance from station: N 56mi, 90km
Updated: 06/22/2018 1:00am
Clear
Clear
 Wind from NNE
Wind: NNE 7 mph , 11 km/h
Temperature: 54°F , 12°C
Dew Point: 43°F , 6°C
Humidity: 67%
Barometer: 1014.9 hPa
Clouds: Clear
Visibility: 9 miles , 14 km
2018/06/22 05:00 CYOO 220500Z AUTO 02006KT 9SM CLR 12/06 A2997 RMK SLP149
CWWB - Burlington Piers, Ontario, Canada
Distance from station: WNW 56mi, 91km
Updated: 06/22/2018 1:00am

 Wind from NE
Wind: NE 15 mph , 24 km/h
Temperature: 63°F , 17°C
Dew Point: 54°F , 12°C
Humidity: 73%
2018/06/22 05:00 CWWB 220500Z AUTO 04013KT 17/12 RMK AO1 SLP140 T01660118 51006
 
CYYZ - Toronto/Pearson, Ontario, Canada
Distance from station: NW 60mi, 96km
Updated: 06/22/2018 1:00am
Partly cloudy
Partly cloudy
 Wind from ENE
Wind: ENE 8 mph , 13 km/h
Temperature: 61°F , 16°C
Dew Point: 41°F , 5°C
Humidity: 48%
Barometer: 1014.6 hPa
Clouds: Partly cloudy
Visibility: 15 miles , 24 km
Cloud details: Partly cloudy 27000 ft
2018/06/22 05:00 CYYZ 220500Z 07007KT 15SM SCT270 16/05 A2996 RMK CI4 SLP146 DENSITY ALT 800FT
CYKZ - Toronto Buttonvi, Ontario, Canada
Distance from station: NW 62mi, 99km
Updated: 06/22/2018 1:00am
Few Clouds
Few Clouds
 Wind from NNE
Wind: NNE 3 mph , 6 km/h
Temperature: 54°F , 12°C
Dew Point: 45°F , 7°C
Humidity: 72%
Barometer: 1014.9 hPa
Clouds: Few Clouds
Visibility: 15 miles , 24 km
Cloud details: Few Clouds 24000 ft
2018/06/22 05:00 CYKZ 220500Z 03003KT 15SM FEW240 12/07 A2997 RMK CI1 SLP151
 
CXHM - Hamilton Rbg Cs, Ontario, Canada
Distance from station: W 62mi, 100km
Updated: 06/22/2018 1:00am

 Wind from NE
Wind: NE 1 mph , 2 km/h
Temperature: 55°F , 13°C
Dew Point: 48°F , 9°C
Humidity: 77%
2018/06/22 05:00 CXHM 220500Z AUTO 04001KT 13/09 RMK AO1 SLP135 T01330092 51006
KDSV - Dansville, New York, USA
Distance from station: SE 62mi, 100km
Updated: 06/22/2018 12:54am
Clear
Clear
 Wind from SE
Wind: SE 5 mph , 7 km/h
Temperature: 50°F , 10°C
Wind Chill: 48°F , 9°C
Dew Point: 43°F , 6°C
Humidity: 76%
Barometer: 1015.2 hPa
Clouds: Clear
Visibility: 10 miles , 16 km
2018/06/22 04:54 KDSV 220454Z AUTO 14004KT 10SM CLR 10/06 A2998 RMK AO2 SLP160 T01000061 402560100
 
CYHM - Hamilton Airport, Ontario, Canada
Distance from station: W 63mi, 101km
Updated: 06/22/2018 1:00am
Mostly cloudy
Mostly cloudy
 Wind from NE
Wind: NE 12 mph , 19 km/h
Temperature: 55°F , 13°C
Dew Point: 54°F , 12°C
Humidity: 94%
Barometer: 1013.9 hPa
Clouds: Mostly cloudy
Visibility: 15 miles , 24 km
Cloud details: Mostly cloudy 25000 ft
2018/06/22 05:00 CYHM 220500Z 05010KT 15SM BKN250 13/12 A2994 RMK CI5 SLP141 DENSITY ALT 800FT
CWNC - Cobourg (mars), Ontario, Canada
Distance from station: NNE 63mi, 102km
Updated: 06/22/2018 1:00am

 Wind from NNE
Wind: NNE 6 mph , 9 km/h
Temperature: 52°F , 11°C
Dew Point: 45°F , 7°C
Humidity: 77%
2018/06/22 05:00 CWNC 220500Z AUTO 03005KT 11/07 RMK AO1 SLP146 T01130067 50004